• Join FlightAware (Why Join?)
  • Login
  • US Flag 
05:03AM EDT


 

Airport Tracker/Info


-or-


 

Live Flight TrackerFlight Track Log ✈ SWA607 ✈ 06-Jun-2014 ✈ KRSW - KPHL

Flight Track Log - Related Links

Times and Time Zones

All times are in EDT time to prevent confusion due to time zone crossing. See the SWA607 flight status page for this flight to view local times or setup timezone preferences in your user account.

Time Position Orientation Groundspeed Altitude Reporting Facility
EDT Latitude Longitude Course Direction KTS MPH feet Rate Location/Type
11:27AM 26.5881 -81.7033 346° North 214 246 3,600  Level Miami Center
11:28AM 26.6506 -81.7103 354° North 229 264 6,600 3,060 Climbing Miami Center
11:29AM 26.7317 -81.7178 355° North 277 319 10,000 3,000 Climbing Miami Center
11:30AM 26.8203 -81.7258 355° North 324 373 12,900 3,180 Climbing Miami Center
11:31AM 26.9233 -81.7356 355° North 344 396 16,700 1,920 Climbing Miami Center
11:32AM 27.2146 -81.8042 346° North  Level FlightAware Approximate
11:32AM 27.0167 -81.7450 355° North 350 403 17,000  Level Miami Center
11:33AM 27.1250 -81.7789 344° North 351 404 19,800 2,640 Climbing Miami Center
11:34AM 27.2322 -81.8139 344° North 382 440 22,600 2,520 Climbing Miami Center
11:35AM 27.3350 -81.8481 344° North 395 455 25,100 2,280 Climbing Miami Center
11:36AM 27.4503 -81.8864 344° North 408 470 27,400 2,220 Climbing Miami Center
11:37AM 27.5708 -81.8358 20° North 441 507 29,700 1,980 Climbing Miami Center
11:38AM 27.6922 -81.7772 23° Northeast 449 517 31,600 1,920 Climbing Miami Center
11:39AM 27.8147 -81.7142 24° Northeast 460 529 33,800 1,620 Climbing Miami Center
11:40AM 27.9139 -81.6625 25° Northeast 460 529 35,000 540 Climbing Miami Center
11:41AM 28.0611 -81.6169 15° North 459 528 35,000  Level Miami Center
11:42AM 28.1853 -81.6128 North 448 516 35,000 240 Level Miami Center
11:43AM 28.3119 -81.6072 North 449 517 35,600 1,200 Climbing Miami Center
11:44AM 28.4364 -81.6011 North 448 516 37,600 1,620 Climbing Miami Center
11:45AM 28.5575 -81.5956 North 439 505 39,000 660 Climbing Miami Center
11:46AM 28.6789 -81.5906 North 435 501 39,000  Level Miami Center
11:47AM 28.8319 -81.5844 North 436 502 39,000  Level Jacksonville Center
11:48AM 28.9531 -81.5781 North 436 502 39,000  Level Jacksonville Center
11:49AM 29.0719 -81.5742 North 429 494 39,000  Level Jacksonville Center
11:50AM 29.1908 -81.5678 North 429 494 39,000  Level Jacksonville Center
11:51AM 29.2992 -81.5639 North 424 488 39,000  Level Jacksonville Center
11:52AM 29.4203 -81.5550 North 424 488 39,000  Level Jacksonville Center
11:53AM 29.5433 -81.5511 North 424 488 39,000  Level Jacksonville Center
11:54AM 29.6664 -81.5444 North 424 488 39,000  Level Jacksonville Center
11:55AM 29.7894 -81.5381 North 431 496 39,000  Level Jacksonville Center
11:56AM 29.9128 -81.5314 North 436 502 39,000  Level Jacksonville Center
11:57AM 30.0358 -81.5275 North 441 507 39,000  Level Jacksonville Center
11:58AM 30.1611 -81.5208 North 441 507 39,000  Level Jacksonville Center
11:59AM 30.2861 -81.5119 North 441 507 39,000  Level Jacksonville Center
12:00PM 30.4114 -81.5053 North 441 507 39,000  Level Jacksonville Center
12:01PM 30.5364 -81.4936 North 441 507 39,000  Level Jacksonville Center
12:02PM 30.6597 -81.4869 North 446 513 39,000  Level Jacksonville Center
12:03PM 30.7994 -81.4753 North 441 507 39,000  Level Jacksonville Center
12:04PM 30.9244 -81.4639 North 441 507 39,000  Level Jacksonville Center
12:05PM 31.0497 -81.4547 North 441 507 39,000  Level Jacksonville Center
12:06PM 31.1750 -81.4456 North 441 507 39,000  Level Jacksonville Center
12:07PM 31.3000 -81.4264 North 447 514 39,000  Level Jacksonville Center
12:08PM 31.4186 -81.3931 13° North 441 507 39,000  Level Jacksonville Center
12:09PM 31.5433 -81.3592 13° North 447 514 39,000  Level Jacksonville Center
12:10PM 31.6517 -81.3306 13° North 452 520 39,000  Level Jacksonville Center
12:11PM 31.7869 -81.2917 14° North 452 520 39,000  Level Jacksonville Center
12:12PM 31.9097 -81.2628 11° North 447 514 39,000  Level Jacksonville Center
12:13PM 32.0325 -81.2286 13° North 452 520 39,000  Level Jacksonville Center
12:14PM 32.1508 -81.1847 17° North 452 520 39,000  Level Jacksonville Center
12:15PM 32.2306 -81.0703 51° Northeast 438 504 39,000  Level Jacksonville Center
12:16PM 32.3103 -80.9506 52° Northeast 455 524 39,000  Level Jacksonville Center
12:17PM 32.3878 -80.8311 52° Northeast 455 524 39,000  Level Jacksonville Center
12:18PM 32.4650 -80.7086 53° Northeast 455 524 39,000  Level Jacksonville Center
12:19PM 32.5422 -80.5883 53° Northeast 455 524 39,000  Level Jacksonville Center
12:20PM 32.6214 -80.4656 53° Northeast 455 524 39,000  Level Jacksonville Center
12:21PM 32.6961 -80.3450 54° Northeast 461 531 39,000  Level Jacksonville Center
12:22PM 32.7731 -80.2244 53° Northeast 461 531 39,000  Level Jacksonville Center
12:23PM 32.8436 -80.1133 53° Northeast 461 531 39,000  Level Jacksonville Center
12:24PM 32.9289 -79.9994 48° Northeast 461 531 39,000  Level Jacksonville Center
12:25PM 33.0289 -79.9044 39° Northeast 456 525 39,000  Level Jacksonville Center
12:26PM 33.1289 -79.8094 38° Northeast 456 525 39,000  Level Jacksonville Center
12:27PM 33.2289 -79.7142 39° Northeast 456 525 39,000  Level Jacksonville Center
12:28PM 33.3264 -79.6186 39° Northeast 456 525 39,000  Level Jacksonville Center
12:29PM 33.4242 -79.5231 39° Northeast 456 525 39,000  Level Jacksonville Center
12:30PM 33.5236 -79.4244 40° Northeast 456 525 39,000  Level Jacksonville Center
12:31PM 33.6233 -79.3258 39° Northeast 456 525 39,000  Level Jacksonville Center
12:33PM 33.7803 -79.1717 39° Northeast 451 519 39,000  Level Washington Center
12:34PM 33.8792 -79.0761 39° Northeast 451 519 39,000  Level Washington Center
12:35PM 33.9778 -78.9775 40° Northeast 456 525 39,000  Level Washington Center
12:36PM 34.0808 -78.8764 39° Northeast 461 531 39,000  Level Washington Center
12:37PM 34.1817 -78.7750 40° Northeast 467 537 39,000  Level Washington Center
12:38PM 34.2844 -78.6758 39° Northeast 467 537 39,000  Level Washington Center
12:39PM 34.3850 -78.5742 40° Northeast 467 537 39,000  Level Washington Center
12:40PM 34.4897 -78.4744 38° Northeast 467 537 39,000  Level Washington Center
12:41PM 34.6228 -78.4036 24° Northeast 466 536 39,000  Level Washington Center
12:42PM 34.7303 -78.3567 20° North 457 526 39,000 -360 Level Washington Center
12:43PM 34.8633 -78.2853 24° Northeast 467 537 38,300 -840 Descending Washington Center
12:44PM 34.9817 -78.2208 24° Northeast 462 532 37,400 -660 Descending Washington Center
12:45PM 35.0881 -78.1253 36° Northeast 462 532 37,000 -600 Descending Washington Center
12:46PM 35.1883 -78.0217 40° Northeast 467 537 36,300 -840 Descending Washington Center
12:47PM 35.2844 -77.9153 42° Northeast 467 537 35,400 -840 Descending Washington Center
12:48PM 35.3844 -77.8058 42° Northeast 467 537 34,700 -840 Descending Washington Center
12:49PM 35.4925 -77.7144 35° Northeast 472 543 33,800 -840 Descending Washington Center
12:50PM 35.6006 -77.6228 35° Northeast 472 543 33,000 -420 Descending Washington Center
12:51PM 35.6936 -77.5461 34° Northeast 466 536 33,000  Level Washington Center
12:52PM 35.7950 -77.4614 34° Northeast 445 512 33,000  Level Washington Center
12:53PM 35.8967 -77.3767 34° Northeast 439 505 33,000  Level Washington Center
12:54PM 35.9981 -77.2942 33° Northeast 439 505 33,000 -240 Level Washington Center
12:55PM 36.0972 -77.2064 36° Northeast 439 505 32,600 -720 Descending Washington Center
12:56PM 36.1944 -77.1156 37° Northeast 433 498 31,600 -960 Descending Washington Center
12:57PM 36.2978 -77.0275 34° Northeast 433 498 30,700 -1,020 Descending Washington Center
12:58PM 36.4031 -76.9364 35° Northeast 444 511 29,700 -900 Descending Washington Center
12:59PM 36.5125 -76.8403 35° Northeast 444 511 29,000 -360 Descending Washington Center
01:00PM 36.6114 -76.7564 34° Northeast 444 511 29,000  Level Washington Center
01:01PM 36.7083 -76.6722 35° Northeast 437 503 29,000  Level Washington Center
01:02PM 36.7967 -76.5931 36° Northeast 432 497 29,000  Level Washington Center
01:03PM 36.8931 -76.5086 35° Northeast 432 497 29,000  Level Washington Center
01:04PM 36.9878 -76.4214 36° Northeast 432 497 29,000  Level Washington Center
01:05PM 37.0842 -76.3392 34° Northeast 427 491 29,000  Level Washington Center
01:06PM 37.1786 -76.2539 36° Northeast 427 491 29,000  Level Washington Center
01:07PM 37.2750 -76.1686 35° Northeast 427 491 29,000  Level Washington Center
01:08PM 37.3858 -76.0753 34° Northeast 433 498 29,000  Level Washington Center
01:09PM 37.4822 -75.9897 35° Northeast 428 493 29,000  Level Washington Center
01:10PM 37.5806 -75.9036 35° Northeast 428 493 29,000  Level Washington Center
01:11PM 37.6767 -75.8175 35° Northeast 428 493 29,000  Level Washington Center
01:12PM 37.7728 -75.7283 36° Northeast 423 487 29,000  Level Washington Center
01:13PM 37.8686 -75.6444 35° Northeast 428 493 29,000  Level Washington Center
01:14PM 37.9625 -75.5575 36° Northeast 428 493 29,000 -540 Level Washington Center
01:15PM 38.0564 -75.4706 36° Northeast 428 493 28,000 -1,680 Descending Washington Center
01:16PM 38.1606 -75.4069 26° Northeast 416 479 25,600 -1,560 Descending Washington Center
01:17PM 38.2583 -75.3431 27° Northeast 409 471 25,000 -1,380 Descending Washington Center
01:18PM 38.3417 -75.2847 29° Northeast 390 449 22,900 -2,400 Descending Washington Center
01:19PM 38.4394 -75.2206 27° Northeast 384 442 20,200 -2,520 Descending Washington Center
01:20PM 38.5372 -75.1644 24° Northeast 384 442 17,800 -2,460 Descending Washington Center
01:21PM 38.6308 -75.1000 28° Northeast 384 442 15,400 -1,440 Descending Washington Center
01:22PM 38.7286 -75.0781 10° North 368 423 15,000 -240 Descending Washington Center
01:23PM 38.8267 -75.0642 North 355 409 15,000  Level Washington Center
01:24PM 38.9267 -75.0500 North 355 409 15,000  Level Washington Center
01:25PM 39.0267 -75.0358 North 350 403 15,000 -480 Level Washington Center
01:26PM 39.1267 -75.0269 North 350 403 14,100 -1,860 Descending Washington Center
01:27PM 39.2225 -75.0156 North 350 403 11,400 -1,680 Descending Washington Center
01:29PM 39.4000 -74.9833 North 275 316 8,900 -1,140 Descending Philadelphia TRACON
01:30PM 39.4833 -74.9833 360° North 270 311 7,800 -1,020 Descending Philadelphia TRACON
01:31PM 39.5500 -74.9833 360° North 259 298 6,900 -960 Descending Philadelphia TRACON
01:32PM 39.6000 -75.0167 333° Northwest 253 291 6,100 -420 Descending Philadelphia TRACON
01:33PM 39.6833 -75.0667 335° Northwest 251 289 6,000 -600 Descending Philadelphia TRACON
01:34PM 39.7333 -75.0167 38° Northeast 270 311 4,800 -1,260 Descending Philadelphia TRACON
01:35PM 39.8167 -75.0000 North 254 292 3,500 -1,140 Descending Philadelphia TRACON
01:36PM 39.8667 -75.0167 346° North 228 262 2,700 -780 Descending Philadelphia TRACON
01:37PM 39.9000 -75.0667 311° West 177 204 2,000 -600 Descending Philadelphia TRACON
01:38PM 39.9000 -75.1333 270° West 159 183 1,400 -660 Descending Philadelphia TRACON
01:39PM 39.8833 -75.1833 247° West 128 147 700 -720 Descending Philadelphia TRACON